KZR915 UAAA-LTAI
Flight info
| Callsign | KZR915 |
|---|---|
| Flight time | N/A |
| Altitude | 36000 |
| Route | EKLAT Z370 TOMGO M610 ARBOL Z621 TRK N147 OTBOR/N0451F360 A480 TIMGA B476 METKA L88 RASAM N199 LUSAL M11 EDATA N161 INDUR UN161 ERZ UL615 ARKIN UA4 SIV UA285 MUT UR55 KONAK |
| Aircraft | A21N/M-SDE2E3FGHIRWXY/LB1 |
Departure
| Time | 2026-05-09 07:26 |
|---|---|
| Airport | Almaty International Airport (UAAA) |
Arrival
| Time | N/A |
|---|---|
| Airport | Antalya International Airport (LTAI) |
| Time | Latitude | Longitude | Altitude | Speed | Heading |
|---|---|---|---|---|---|
| 2026-05-09 07:07 | 43.34874 | 77.01353 | 2229 ft | 0 kts | 246° |
| 2026-05-09 07:09 | 43.34874 | 77.01354 | 2229 ft | 2 kts | 246° |
| 2026-05-09 07:10 | 43.34883 | 77.01379 | 2229 ft | 3 kts | 244° |
| 2026-05-09 07:10 | 43.34892 | 77.01404 | 2224 ft | 3 kts | 241° |
| 2026-05-09 07:10 | 43.34901 | 77.01427 | 2226 ft | 3 kts | 235° |
| 2026-05-09 07:10 | 43.34912 | 77.01446 | 2225 ft | 2 kts | 220° |
| 2026-05-09 07:11 | 43.34923 | 77.01457 | 2225 ft | 2 kts | 193° |
| 2026-05-09 07:11 | 43.34939 | 77.01459 | 2225 ft | 2 kts | 165° |
| 2026-05-09 07:11 | 43.34949 | 77.01456 | 2225 ft | 1 kts | 156° |
| 2026-05-09 07:11 | 43.34956 | 77.01452 | 2225 ft | 1 kts | 159° |
| 2026-05-09 07:12 | 43.34960 | 77.01450 | 2226 ft | 0 kts | 157° |
| 2026-05-09 07:15 | 43.34959 | 77.01451 | 2226 ft | 1 kts | 157° |
| 2026-05-09 07:15 | 43.34939 | 77.01462 | 2225 ft | 5 kts | 157° |
| 2026-05-09 07:16 | 43.34901 | 77.01485 | 2228 ft | 7 kts | 155° |
| 2026-05-09 07:16 | 43.34849 | 77.01509 | 2226 ft | 8 kts | 172° |
| 2026-05-09 07:16 | 43.34821 | 77.01515 | 2227 ft | 1 kts | 168° |
| 2026-05-09 07:16 | 43.34820 | 77.01520 | 2227 ft | 0 kts | 144° |
| 2026-05-09 07:17 | 43.34820 | 77.01538 | 2227 ft | 4 kts | 97° |
| 2026-05-09 07:17 | 43.34815 | 77.01612 | 2225 ft | 11 kts | 93° |
| 2026-05-09 07:17 | 43.34810 | 77.01736 | 2228 ft | 15 kts | 93° |
| 2026-05-09 07:17 | 43.34803 | 77.01885 | 2229 ft | 16 kts | 94° |
| 2026-05-09 07:18 | 43.34795 | 77.02047 | 2229 ft | 18 kts | 95° |
| 2026-05-09 07:18 | 43.34786 | 77.02207 | 2224 ft | 15 kts | 95° |
| 2026-05-09 07:18 | 43.34781 | 77.02344 | 2229 ft | 11 kts | 91° |
| 2026-05-09 07:18 | 43.34776 | 77.02459 | 2228 ft | 13 kts | 95° |
| 2026-05-09 07:19 | 43.34776 | 77.02582 | 2225 ft | 14 kts | 77° |
| 2026-05-09 07:19 | 43.34832 | 77.02709 | 2223 ft | 17 kts | 55° |
| 2026-05-09 07:19 | 43.34906 | 77.02856 | 2225 ft | 19 kts | 57° |
| 2026-05-09 07:19 | 43.34984 | 77.03017 | 2224 ft | 21 kts | 56° |
| 2026-05-09 07:20 | 43.35069 | 77.03190 | 2227 ft | 22 kts | 56° |
| 2026-05-09 07:20 | 43.35158 | 77.03368 | 2227 ft | 24 kts | 55° |
| 2026-05-09 07:20 | 43.35254 | 77.03561 | 2226 ft | 26 kts | 56° |
| 2026-05-09 07:20 | 43.35359 | 77.03770 | 2226 ft | 27 kts | 54° |
| 2026-05-09 07:21 | 43.35472 | 77.03993 | 2224 ft | 29 kts | 56° |
| 2026-05-09 07:21 | 43.35586 | 77.04225 | 2224 ft | 30 kts | 58° |
| 2026-05-09 07:21 | 43.35701 | 77.04462 | 2225 ft | 30 kts | 55° |
| 2026-05-09 07:21 | 43.35819 | 77.04702 | 2225 ft | 31 kts | 56° |
| 2026-05-09 07:22 | 43.35942 | 77.04950 | 2223 ft | 32 kts | 55° |
| 2026-05-09 07:22 | 43.36072 | 77.05207 | 2225 ft | 32 kts | 55° |
| 2026-05-09 07:22 | 43.36154 | 77.05377 | 2225 ft | 32 kts | 56° |
| 2026-05-09 07:22 | 43.36321 | 77.05712 | 2224 ft | 33 kts | 54° |
| 2026-05-09 07:23 | 43.36399 | 77.05871 | 2225 ft | 27 kts | 54° |
| 2026-05-09 07:23 | 43.36465 | 77.06003 | 2224 ft | 13 kts | 54° |
| 2026-05-09 07:23 | 43.36503 | 77.06112 | 2222 ft | 9 kts | 82° |
| 2026-05-09 07:23 | 43.36503 | 77.06131 | 2224 ft | 0 kts | 89° |
| 2026-05-09 07:24 | 43.36502 | 77.06133 | 2224 ft | 1 kts | 97° |
| 2026-05-09 07:24 | 43.36487 | 77.06149 | 2227 ft | 5 kts | 145° |
| 2026-05-09 07:24 | 43.36451 | 77.06179 | 2227 ft | 7 kts | 147° |
| 2026-05-09 07:25 | 43.36400 | 77.06198 | 2227 ft | 8 kts | 179° |
| 2026-05-09 07:25 | 43.36337 | 77.06179 | 2227 ft | 10 kts | 201° |
| 2026-05-09 07:25 | 43.36285 | 77.06105 | 2225 ft | 11 kts | 235° |
| 2026-05-09 07:25 | 43.36186 | 77.05904 | 2232 ft | 59 kts | 236° |
| 2026-05-09 07:26 | 43.35814 | 77.05158 | 2226 ft | 129 kts | 236° |
| 2026-05-09 07:26 | 43.35198 | 77.03912 | 2235 ft | 182 kts | 237° |
| 2026-05-09 07:26 | 43.34458 | 77.02425 | 2796 ft | 191 kts | 237° |
| 2026-05-09 07:26 | 43.33694 | 77.00891 | 3568 ft | 198 kts | 236° |
| 2026-05-09 07:27 | 43.32903 | 76.99324 | 4347 ft | 201 kts | 238° |
| 2026-05-09 07:27 | 43.32114 | 76.97740 | 5328 ft | 198 kts | 238° |
| 2026-05-09 07:27 | 43.31346 | 76.96162 | 6148 ft | 207 kts | 238° |
| 2026-05-09 07:27 | 43.30513 | 76.94451 | 6600 ft | 229 kts | 237° |
| 2026-05-09 07:28 | 43.29684 | 76.92477 | 7186 ft | 245 kts | 246° |
| 2026-05-09 07:28 | 43.29314 | 76.90136 | 7696 ft | 263 kts | 273° |
| 2026-05-09 07:28 | 43.29570 | 76.87550 | 8259 ft | 281 kts | 278° |
| 2026-05-09 07:28 | 43.29869 | 76.84882 | 9185 ft | 285 kts | 276° |
| 2026-05-09 07:29 | 43.30123 | 76.82158 | 10098 ft | 290 kts | 275° |
| 2026-05-09 07:29 | 43.30334 | 76.79355 | 10738 ft | 305 kts | 274° |
| 2026-05-09 07:29 | 43.30529 | 76.76351 | 11073 ft | 327 kts | 273° |
| 2026-05-09 07:29 | 43.30720 | 76.73181 | 11671 ft | 336 kts | 273° |
| 2026-05-09 07:30 | 43.30913 | 76.69981 | 12609 ft | 336 kts | 273° |
| 2026-05-09 07:30 | 43.31104 | 76.66783 | 13544 ft | 337 kts | 274° |
| 2026-05-09 07:30 | 43.31298 | 76.63561 | 14326 ft | 340 kts | 274° |
| 2026-05-09 07:30 | 43.31495 | 76.60309 | 15003 ft | 344 kts | 274° |
| 2026-05-09 07:31 | 43.31693 | 76.57021 | 15697 ft | 348 kts | 274° |
| 2026-05-09 07:31 | 43.31891 | 76.53744 | 16403 ft | 350 kts | 274° |
| 2026-05-09 07:31 | 43.32093 | 76.50400 | 17073 ft | 354 kts | 274° |
| 2026-05-09 07:31 | 43.32297 | 76.47015 | 17747 ft | 357 kts | 274° |
| 2026-05-09 07:32 | 43.32500 | 76.43602 | 18396 ft | 360 kts | 274° |
| 2026-05-09 07:32 | 43.32704 | 76.40169 | 19012 ft | 362 kts | 275° |
| 2026-05-09 07:32 | 43.32909 | 76.36712 | 19584 ft | 365 kts | 275° |
| 2026-05-09 07:32 | 43.33114 | 76.33229 | 20166 ft | 367 kts | 275° |
| 2026-05-09 07:33 | 43.33321 | 76.29723 | 20755 ft | 370 kts | 275° |
| 2026-05-09 07:33 | 43.33732 | 76.22677 | 21866 ft | 375 kts | 275° |
| 2026-05-09 07:33 | 43.33941 | 76.19088 | 22422 ft | 378 kts | 275° |
| 2026-05-09 07:34 | 43.34149 | 76.15473 | 22960 ft | 381 kts | 275° |
| 2026-05-09 07:34 | 43.34359 | 76.11828 | 23489 ft | 384 kts | 275° |
| 2026-05-09 07:34 | 43.34568 | 76.08162 | 23959 ft | 387 kts | 275° |
| 2026-05-09 07:34 | 43.34778 | 76.04471 | 24430 ft | 388 kts | 275° |
| 2026-05-09 07:35 | 43.34986 | 76.00767 | 24889 ft | 390 kts | 275° |
| 2026-05-09 07:35 | 43.35194 | 75.97037 | 25328 ft | 392 kts | 275° |
| 2026-05-09 07:35 | 43.35402 | 75.93292 | 25759 ft | 394 kts | 275° |
| 2026-05-09 07:35 | 43.35610 | 75.89530 | 26194 ft | 396 kts | 275° |
| 2026-05-09 07:36 | 43.35816 | 75.85795 | 26603 ft | 398 kts | 275° |
| 2026-05-09 07:36 | 43.36023 | 75.81998 | 27004 ft | 400 kts | 275° |
| 2026-05-09 07:36 | 43.36231 | 75.78172 | 27388 ft | 402 kts | 275° |
| 2026-05-09 07:36 | 43.36439 | 75.74334 | 27774 ft | 404 kts | 275° |
| 2026-05-09 07:37 | 43.36646 | 75.70475 | 28143 ft | 406 kts | 276° |
| 2026-05-09 07:37 | 43.36852 | 75.66604 | 28491 ft | 408 kts | 276° |
| 2026-05-09 07:37 | 43.37059 | 75.62704 | 28841 ft | 409 kts | 276° |
| 2026-05-09 07:37 | 43.37279 | 75.58794 | 29173 ft | 411 kts | 277° |
| 2026-05-09 07:38 | 43.37637 | 75.54896 | 29489 ft | 412 kts | 280° |
| 2026-05-09 07:38 | 43.38158 | 75.51024 | 29806 ft | 413 kts | 283° |
| 2026-05-09 07:38 | 43.38821 | 75.47229 | 30118 ft | 414 kts | 285° |
| 2026-05-09 07:38 | 43.39546 | 75.43391 | 30434 ft | 415 kts | 285° |
| 2026-05-09 07:39 | 43.40264 | 75.39553 | 30757 ft | 415 kts | 285° |
| 2026-05-09 07:39 | 43.40982 | 75.35704 | 31076 ft | 415 kts | 285° |
| 2026-05-09 07:39 | 43.41695 | 75.31865 | 31468 ft | 414 kts | 285° |
| 2026-05-09 07:39 | 43.42403 | 75.28049 | 31895 ft | 411 kts | 284° |
| 2026-05-09 07:40 | 43.43105 | 75.24254 | 32006 ft | 407 kts | 284° |
| 2026-05-09 07:40 | 43.44487 | 75.16757 | 32000 ft | 407 kts | 284° |
| 2026-05-09 07:41 | 43.45874 | 75.09199 | 32001 ft | 407 kts | 284° |
| 2026-05-09 07:41 | 43.47255 | 75.01641 | 31998 ft | 408 kts | 284° |
| 2026-05-09 07:42 | 43.48634 | 74.94065 | 32000 ft | 408 kts | 284° |
| 2026-05-09 07:42 | 43.49998 | 74.86542 | 31996 ft | 408 kts | 283° |
| 2026-05-09 07:43 | 43.51371 | 74.78943 | 32000 ft | 409 kts | 283° |
| 2026-05-09 07:43 | 43.52737 | 74.71333 | 31995 ft | 409 kts | 283° |
| 2026-05-09 07:44 | 43.54097 | 74.63720 | 31995 ft | 409 kts | 283° |
| 2026-05-09 07:44 | 43.55446 | 74.56144 | 31989 ft | 410 kts | 283° |
| 2026-05-09 07:45 | 43.56798 | 74.48516 | 31987 ft | 410 kts | 283° |
| 2026-05-09 07:45 | 43.58146 | 74.40881 | 31985 ft | 410 kts | 282° |
| 2026-05-09 07:46 | 43.59488 | 74.33243 | 31978 ft | 410 kts | 282° |
| 2026-05-09 07:46 | 43.60828 | 74.25588 | 31974 ft | 410 kts | 282° |
| 2026-05-09 07:47 | 43.62153 | 74.17993 | 31968 ft | 410 kts | 282° |
| 2026-05-09 07:47 | 43.63492 | 74.10336 | 31967 ft | 410 kts | 282° |
| 2026-05-09 07:48 | 43.64824 | 74.02684 | 31959 ft | 410 kts | 282° |
| 2026-05-09 07:48 | 43.66150 | 73.95027 | 31959 ft | 410 kts | 282° |
| 2026-05-09 07:49 | 43.67471 | 73.87365 | 31955 ft | 410 kts | 282° |
| 2026-05-09 07:49 | 43.68741 | 73.79747 | 31951 ft | 409 kts | 279° |
| 2026-05-09 07:50 | 43.69327 | 73.71955 | 31950 ft | 408 kts | 271° |
| 2026-05-09 07:50 | 43.69073 | 73.64128 | 31950 ft | 408 kts | 266° |
| 2026-05-09 07:51 | 43.68665 | 73.56326 | 31948 ft | 407 kts | 266° |
| 2026-05-09 07:51 | 43.68267 | 73.48574 | 31952 ft | 407 kts | 266° |
| 2026-05-09 07:52 | 43.67859 | 73.40787 | 31950 ft | 406 kts | 266° |
| 2026-05-09 07:52 | 43.67446 | 73.33020 | 31944 ft | 405 kts | 266° |
| 2026-05-09 07:53 | 43.67029 | 73.25272 | 31947 ft | 404 kts | 266° |
| 2026-05-09 07:53 | 43.66607 | 73.17548 | 31947 ft | 403 kts | 266° |
| 2026-05-09 07:54 | 43.66185 | 73.09905 | 31948 ft | 402 kts | 267° |
| 2026-05-09 07:54 | 43.65756 | 73.02222 | 31947 ft | 401 kts | 266° |
| 2026-05-09 07:55 | 43.65323 | 72.94553 | 31943 ft | 400 kts | 266° |
| 2026-05-09 07:55 | 43.64885 | 72.86902 | 31942 ft | 399 kts | 266° |
| 2026-05-09 07:56 | 43.64444 | 72.79266 | 31942 ft | 399 kts | 266° |
| 2026-05-09 07:56 | 43.64002 | 72.71706 | 31942 ft | 397 kts | 266° |
| 2026-05-09 07:57 | 43.63552 | 72.64098 | 31941 ft | 398 kts | 266° |
| 2026-05-09 07:57 | 43.63098 | 72.56500 | 31936 ft | 397 kts | 266° |
| 2026-05-09 07:58 | 43.62639 | 72.48909 | 31937 ft | 397 kts | 265° |
| 2026-05-09 07:58 | 43.62178 | 72.41370 | 31937 ft | 397 kts | 265° |
| 2026-05-09 07:59 | 43.61709 | 72.33795 | 31933 ft | 396 kts | 265° |
| 2026-05-09 07:59 | 43.61235 | 72.26218 | 31936 ft | 398 kts | 265° |
| 2026-05-09 08:00 | 43.60749 | 72.18538 | 31931 ft | 403 kts | 265° |
| 2026-05-09 08:00 | 43.60260 | 72.10885 | 31933 ft | 403 kts | 264° |
| 2026-05-09 08:01 | 43.59762 | 72.03175 | 31930 ft | 404 kts | 264° |
| 2026-05-09 08:01 | 43.59258 | 71.95465 | 31931 ft | 404 kts | 264° |
| 2026-05-09 08:02 | 43.58749 | 71.87748 | 31930 ft | 405 kts | 264° |
| 2026-05-09 08:02 | 43.58233 | 71.80009 | 31929 ft | 406 kts | 263° |
| 2026-05-09 08:03 | 43.57713 | 71.72305 | 31927 ft | 406 kts | 263° |
| 2026-05-09 08:03 | 43.57185 | 71.64544 | 31931 ft | 407 kts | 263° |
| 2026-05-09 08:04 | 43.56649 | 71.56760 | 31930 ft | 408 kts | 263° |
| 2026-05-09 08:04 | 43.56107 | 71.48964 | 31927 ft | 409 kts | 263° |
| 2026-05-09 08:05 | 43.55558 | 71.41155 | 31926 ft | 409 kts | 263° |
| 2026-05-09 08:05 | 43.55005 | 71.33389 | 31928 ft | 410 kts | 263° |
| 2026-05-09 08:06 | 43.54444 | 71.25580 | 31928 ft | 410 kts | 263° |
| 2026-05-09 08:06 | 43.53878 | 71.17761 | 31926 ft | 410 kts | 263° |
| 2026-05-09 08:07 | 43.53306 | 71.09934 | 31926 ft | 410 kts | 263° |
| 2026-05-09 08:07 | 43.52729 | 71.02116 | 31929 ft | 410 kts | 263° |
| 2026-05-09 08:08 | 43.52151 | 70.94347 | 31929 ft | 410 kts | 263° |
| 2026-05-09 08:08 | 43.51568 | 70.86529 | 31927 ft | 410 kts | 263° |
| 2026-05-09 08:09 | 43.50968 | 70.78713 | 31928 ft | 410 kts | 263° |
| 2026-05-09 08:09 | 43.50358 | 70.70895 | 31930 ft | 410 kts | 263° |
| 2026-05-09 08:10 | 43.49751 | 70.63145 | 31931 ft | 410 kts | 263° |
| 2026-05-09 08:10 | 43.49135 | 70.55335 | 31936 ft | 410 kts | 263° |
| 2026-05-09 08:11 | 43.48514 | 70.47538 | 31933 ft | 409 kts | 263° |
| 2026-05-09 08:11 | 43.47888 | 70.39749 | 31932 ft | 409 kts | 263° |
| 2026-05-09 08:12 | 43.46941 | 70.28076 | 31933 ft | 409 kts | 263° |
| 2026-05-09 08:12 | 43.46308 | 70.20358 | 31933 ft | 408 kts | 263° |
| 2026-05-09 08:13 | 43.45666 | 70.12597 | 31942 ft | 408 kts | 263° |
| 2026-05-09 08:13 | 43.45021 | 70.04848 | 31941 ft | 408 kts | 263° |
| 2026-05-09 08:14 | 43.44371 | 69.97113 | 31941 ft | 407 kts | 263° |
| 2026-05-09 08:14 | 43.43720 | 69.89436 | 31942 ft | 406 kts | 263° |
| 2026-05-09 08:15 | 43.43063 | 69.81719 | 31943 ft | 406 kts | 263° |
| 2026-05-09 08:15 | 43.42399 | 69.74016 | 31943 ft | 406 kts | 263° |
| 2026-05-09 08:16 | 43.41757 | 69.66311 | 31936 ft | 405 kts | 263° |
| 2026-05-09 08:16 | 43.41123 | 69.58665 | 31939 ft | 405 kts | 263° |
| 2026-05-09 08:17 | 43.40477 | 69.50979 | 31934 ft | 404 kts | 263° |
| 2026-05-09 08:17 | 43.39825 | 69.43312 | 31935 ft | 404 kts | 262° |
| 2026-05-09 08:18 | 43.39169 | 69.35655 | 31932 ft | 403 kts | 262° |
| 2026-05-09 08:18 | 43.38508 | 69.28003 | 31931 ft | 403 kts | 262° |
| 2026-05-09 08:19 | 43.37848 | 69.20414 | 31925 ft | 402 kts | 262° |
| 2026-05-09 08:19 | 43.37188 | 69.12732 | 31933 ft | 402 kts | 262° |
| 2026-05-09 08:20 | 43.36571 | 69.05148 | 31928 ft | 402 kts | 262° |
| 2026-05-09 08:20 | 43.35942 | 68.97525 | 31912 ft | 401 kts | 262° |
| 2026-05-09 08:21 | 43.35305 | 68.89907 | 31904 ft | 401 kts | 262° |
| 2026-05-09 08:21 | 43.34660 | 68.82286 | 32474 ft | 398 kts | 262° |
| 2026-05-09 08:22 | 43.34340 | 68.78543 | 33044 ft | 392 kts | 262° |
| 2026-05-09 08:22 | 43.34024 | 68.74844 | 33478 ft | 389 kts | 262° |
| 2026-05-09 08:22 | 43.33707 | 68.71156 | 33866 ft | 387 kts | 262° |
| 2026-05-09 08:22 | 43.33391 | 68.67491 | 34184 ft | 386 kts | 262° |
| 2026-05-09 08:23 | 43.33075 | 68.63840 | 34462 ft | 385 kts | 262° |
| 2026-05-09 08:23 | 43.32758 | 68.60197 | 34735 ft | 384 kts | 262° |
| 2026-05-09 08:23 | 43.32437 | 68.56559 | 35007 ft | 383 kts | 262° |
| 2026-05-09 08:23 | 43.32042 | 68.53004 | 35264 ft | 382 kts | 260° |
| 2026-05-09 08:24 | 43.31590 | 68.49411 | 35519 ft | 381 kts | 260° |
| 2026-05-09 08:24 | 43.31133 | 68.45833 | 35768 ft | 380 kts | 260° |
| 2026-05-09 08:24 | 43.30684 | 68.42255 | 35888 ft | 379 kts | 260° |
| 2026-05-09 08:24 | 43.30236 | 68.38703 | 35886 ft | 378 kts | 259° |
| 2026-05-09 08:25 | 43.29076 | 68.31662 | 35888 ft | 378 kts | 256° |
| 2026-05-09 08:25 | 43.27778 | 68.24639 | 35894 ft | 384 kts | 256° |
| 2026-05-09 08:26 | 43.26465 | 68.17508 | 35892 ft | 390 kts | 256° |
| 2026-05-09 08:26 | 43.25132 | 68.10311 | 35899 ft | 389 kts | 256° |
| 2026-05-09 08:27 | 43.23796 | 68.03128 | 35901 ft | 389 kts | 256° |
| 2026-05-09 08:27 | 43.22453 | 67.95942 | 35898 ft | 389 kts | 256° |
| 2026-05-09 08:28 | 43.21108 | 67.88769 | 35897 ft | 388 kts | 256° |
| 2026-05-09 08:28 | 43.19768 | 67.81653 | 35896 ft | 388 kts | 256° |
| 2026-05-09 08:29 | 43.18413 | 67.74492 | 35899 ft | 388 kts | 256° |
| 2026-05-09 08:29 | 43.17053 | 67.67333 | 35900 ft | 388 kts | 255° |
| 2026-05-09 08:30 | 43.15689 | 67.60180 | 35900 ft | 388 kts | 255° |
| 2026-05-09 08:30 | 43.14321 | 67.53029 | 35904 ft | 388 kts | 255° |
| 2026-05-09 08:31 | 43.12957 | 67.45929 | 35905 ft | 388 kts | 255° |
| 2026-05-09 08:31 | 43.11580 | 67.38782 | 35909 ft | 389 kts | 255° |
| 2026-05-09 08:32 | 43.10198 | 67.31628 | 35912 ft | 389 kts | 255° |
| 2026-05-09 08:33 | 43.09047 | 67.25688 | 35918 ft | 389 kts | 255° |